sensor_id;sensor_type;location;lat;lon;timestamp;P1;durP1;ratioP1;P2;durP2;ratioP2
22144;SDS011;11238;48.730;11.566;2023-12-28T00:01:21;7.35;;;4.07;;
22144;SDS011;11238;48.730;11.566;2023-12-28T00:03:47;7.13;;;4.57;;
22144;SDS011;11238;48.730;11.566;2023-12-28T00:06:13;5.05;;;3.70;;
22144;SDS011;11238;48.730;11.566;2023-12-28T00:08:39;6.30;;;4.20;;
22144;SDS011;11238;48.730;11.566;2023-12-28T00:11:06;10.70;;;4.55;;
22144;SDS011;11238;48.730;11.566;2023-12-28T00:13:31;6.82;;;4.05;;
22144;SDS011;11238;48.730;11.566;2023-12-28T00:15:57;6.28;;;3.55;;
22144;SDS011;11238;48.730;11.566;2023-12-28T00:18:23;6.40;;;3.85;;
22144;SDS011;11238;48.730;11.566;2023-12-28T00:20:49;5.63;;;4.00;;
22144;SDS011;11238;48.730;11.566;2023-12-28T00:23:15;6.30;;;4.00;;
22144;SDS011;11238;48.730;11.566;2023-12-28T00:25:41;7.65;;;4.40;;
22144;SDS011;11238;48.730;11.566;2023-12-28T00:28:07;6.80;;;4.18;;
22144;SDS011;11238;48.730;11.566;2023-12-28T00:30:33;7.20;;;4.55;;
22144;SDS011;11238;48.730;11.566;2023-12-28T00:32:59;6.72;;;4.60;;
22144;SDS011;11238;48.730;11.566;2023-12-28T00:35:25;7.63;;;4.63;;
22144;SDS011;11238;48.730;11.566;2023-12-28T00:37:51;7.80;;;4.75;;
22144;SDS011;11238;48.730;11.566;2023-12-28T00:40:17;7.20;;;4.55;;
22144;SDS011;11238;48.730;11.566;2023-12-28T00:42:43;8.85;;;4.95;;
22144;SDS011;11238;48.730;11.566;2023-12-28T00:45:09;10.27;;;4.85;;
22144;SDS011;11238;48.730;11.566;2023-12-28T00:47:37;7.95;;;4.45;;
22144;SDS011;11238;48.730;11.566;2023-12-28T00:50:04;5.47;;;4.40;;
22144;SDS011;11238;48.730;11.566;2023-12-28T00:52:31;7.07;;;4.65;;
22144;SDS011;11238;48.730;11.566;2023-12-28T00:55:18;6.28;;;4.35;;
22144;SDS011;11238;48.730;11.566;2023-12-28T00:57:44;11.60;;;4.90;;
22144;SDS011;11238;48.730;11.566;2023-12-28T01:00:10;8.73;;;5.18;;
22144;SDS011;11238;48.730;11.566;2023-12-28T01:02:36;7.82;;;4.65;;
22144;SDS011;11238;48.730;11.566;2023-12-28T01:05:02;8.98;;;5.15;;
22144;SDS011;11238;48.730;11.566;2023-12-28T01:07:29;11.43;;;5.93;;
22144;SDS011;11238;48.730;11.566;2023-12-28T01:09:55;8.93;;;4.95;;
22144;SDS011;11238;48.730;11.566;2023-12-28T01:12:23;14.57;;;6.43;;
22144;SDS011;11238;48.730;11.566;2023-12-28T01:14:49;7.95;;;5.13;;
22144;SDS011;11238;48.730;11.566;2023-12-28T01:17:15;11.07;;;6.05;;
22144;SDS011;11238;48.730;11.566;2023-12-28T01:19:41;14.52;;;6.05;;
22144;SDS011;11238;48.730;11.566;2023-12-28T01:22:07;14.35;;;7.13;;
22144;SDS011;11238;48.730;11.566;2023-12-28T01:24:32;24.13;;;9.57;;
22144;SDS011;11238;48.730;11.566;2023-12-28T01:26:58;16.70;;;6.55;;
22144;SDS011;11238;48.730;11.566;2023-12-28T01:29:24;9.60;;;5.60;;
22144;SDS011;11238;48.730;11.566;2023-12-28T01:31:50;9.23;;;5.22;;
22144;SDS011;11238;48.730;11.566;2023-12-28T01:34:16;9.52;;;5.75;;
22144;SDS011;11238;48.730;11.566;2023-12-28T01:36:41;12.05;;;6.18;;
22144;SDS011;11238;48.730;11.566;2023-12-28T01:39:09;11.00;;;5.68;;
22144;SDS011;11238;48.730;11.566;2023-12-28T01:41:57;9.27;;;4.78;;
22144;SDS011;11238;48.730;11.566;2023-12-28T01:44:24;8.10;;;5.10;;
22144;SDS011;11238;48.730;11.566;2023-12-28T01:46:50;8.10;;;4.70;;
22144;SDS011;11238;48.730;11.566;2023-12-28T01:49:16;9.02;;;5.20;;
22144;SDS011;11238;48.730;11.566;2023-12-28T01:51:43;8.68;;;5.28;;
22144;SDS011;11238;48.730;11.566;2023-12-28T01:54:10;9.82;;;5.07;;
22144;SDS011;11238;48.730;11.566;2023-12-28T01:56:36;10.90;;;5.38;;
22144;SDS011;11238;48.730;11.566;2023-12-28T01:59:02;8.07;;;4.90;;
22144;SDS011;11238;48.730;11.566;2023-12-28T02:01:28;7.95;;;4.68;;
22144;SDS011;11238;48.730;11.566;2023-12-28T02:03:56;10.80;;;4.97;;
22144;SDS011;11238;48.730;11.566;2023-12-28T02:06:22;7.68;;;4.43;;
22144;SDS011;11238;48.730;11.566;2023-12-28T02:08:49;6.00;;;4.60;;
22144;SDS011;11238;48.730;11.566;2023-12-28T02:11:14;8.00;;;5.13;;
22144;SDS011;11238;48.730;11.566;2023-12-28T02:13:40;8.50;;;4.60;;
22144;SDS011;11238;48.730;11.566;2023-12-28T02:16:32;9.93;;;4.63;;
22144;SDS011;11238;48.730;11.566;2023-12-28T02:19:11;9.63;;;5.22;;
22144;SDS011;11238;48.730;11.566;2023-12-28T02:21:50;7.85;;;4.82;;
22144;SDS011;11238;48.730;11.566;2023-12-28T02:24:16;10.55;;;4.82;;
22144;SDS011;11238;48.730;11.566;2023-12-28T02:26:41;7.60;;;4.82;;
22144;SDS011;11238;48.730;11.566;2023-12-28T02:29:07;7.03;;;4.90;;
22144;SDS011;11238;48.730;11.566;2023-12-28T02:31:45;8.90;;;5.38;;
22144;SDS011;11238;48.730;11.566;2023-12-28T02:34:24;8.77;;;4.90;;
22144;SDS011;11238;48.730;11.566;2023-12-28T02:36:55;8.68;;;4.95;;
22144;SDS011;11238;48.730;11.566;2023-12-28T02:39:22;11.35;;;5.30;;
22144;SDS011;11238;48.730;11.566;2023-12-28T02:41:50;11.18;;;5.28;;
22144;SDS011;11238;48.730;11.566;2023-12-28T02:44:17;9.07;;;4.95;;
22144;SDS011;11238;48.730;11.566;2023-12-28T02:46:45;7.18;;;4.72;;
22144;SDS011;11238;48.730;11.566;2023-12-28T02:49:11;8.70;;;5.10;;
22144;SDS011;11238;48.730;11.566;2023-12-28T02:51:37;8.60;;;5.13;;
22144;SDS011;11238;48.730;11.566;2023-12-28T02:54:03;8.57;;;4.80;;
22144;SDS011;11238;48.730;11.566;2023-12-28T02:56:28;8.50;;;5.07;;
22144;SDS011;11238;48.730;11.566;2023-12-28T02:58:55;8.40;;;4.90;;
22144;SDS011;11238;48.730;11.566;2023-12-28T03:01:20;7.90;;;5.40;;
22144;SDS011;11238;48.730;11.566;2023-12-28T03:03:48;7.35;;;4.78;;
22144;SDS011;11238;48.730;11.566;2023-12-28T03:06:15;7.40;;;5.20;;
22144;SDS011;11238;48.730;11.566;2023-12-28T03:08:41;10.23;;;5.18;;
22144;SDS011;11238;48.730;11.566;2023-12-28T03:11:11;8.50;;;5.25;;
22144;SDS011;11238;48.730;11.566;2023-12-28T03:13:38;9.02;;;4.72;;
22144;SDS011;11238;48.730;11.566;2023-12-28T03:16:03;7.47;;;4.55;;
22144;SDS011;11238;48.730;11.566;2023-12-28T03:18:50;8.63;;;5.28;;
22144;SDS011;11238;48.730;11.566;2023-12-28T03:21:16;8.90;;;5.05;;
22144;SDS011;11238;48.730;11.566;2023-12-28T03:23:43;8.27;;;5.32;;
22144;SDS011;11238;48.730;11.566;2023-12-28T03:26:09;7.60;;;5.10;;
22144;SDS011;11238;48.730;11.566;2023-12-28T03:28:34;11.15;;;5.95;;
22144;SDS011;11238;48.730;11.566;2023-12-28T03:31:01;9.88;;;5.65;;
22144;SDS011;11238;48.730;11.566;2023-12-28T03:33:28;10.23;;;5.07;;
22144;SDS011;11238;48.730;11.566;2023-12-28T03:35:54;13.73;;;5.60;;
22144;SDS011;11238;48.730;11.566;2023-12-28T03:38:21;9.13;;;5.07;;
22144;SDS011;11238;48.730;11.566;2023-12-28T03:40:47;7.75;;;4.50;;
22144;SDS011;11238;48.730;11.566;2023-12-28T03:43:15;11.80;;;4.65;;
22144;SDS011;11238;48.730;11.566;2023-12-28T03:45:41;8.43;;;5.22;;
22144;SDS011;11238;48.730;11.566;2023-12-28T03:48:07;9.48;;;5.70;;
22144;SDS011;11238;48.730;11.566;2023-12-28T03:50:32;8.65;;;5.28;;
22144;SDS011;11238;48.730;11.566;2023-12-28T03:53:00;8.43;;;5.35;;
22144;SDS011;11238;48.730;11.566;2023-12-28T03:55:26;12.07;;;5.35;;
22144;SDS011;11238;48.730;11.566;2023-12-28T03:57:51;8.73;;;5.43;;
22144;SDS011;11238;48.730;11.566;2023-12-28T04:00:17;9.23;;;5.63;;
22144;SDS011;11238;48.730;11.566;2023-12-28T04:02:43;11.32;;;5.25;;
22144;SDS011;11238;48.730;11.566;2023-12-28T04:05:09;9.95;;;5.00;;
22144;SDS011;11238;48.730;11.566;2023-12-28T04:07:36;6.47;;;4.90;;
22144;SDS011;11238;48.730;11.566;2023-12-28T04:10:02;6.93;;;4.93;;
22144;SDS011;11238;48.730;11.566;2023-12-28T04:12:29;12.15;;;5.00;;
22144;SDS011;11238;48.730;11.566;2023-12-28T04:14:55;8.52;;;5.28;;
22144;SDS011;11238;48.730;11.566;2023-12-28T04:17:21;8.68;;;4.78;;
22144;SDS011;11238;48.730;11.566;2023-12-28T04:19:47;11.18;;;5.20;;
22144;SDS011;11238;48.730;11.566;2023-12-28T04:22:13;6.88;;;4.63;;
22144;SDS011;11238;48.730;11.566;2023-12-28T04:24:38;8.95;;;4.90;;
22144;SDS011;11238;48.730;11.566;2023-12-28T04:27:04;8.82;;;5.32;;
22144;SDS011;11238;48.730;11.566;2023-12-28T04:29:52;7.95;;;4.97;;
22144;SDS011;11238;48.730;11.566;2023-12-28T04:32:18;8.18;;;5.13;;
22144;SDS011;11238;48.730;11.566;2023-12-28T04:34:43;8.07;;;4.93;;
22144;SDS011;11238;48.730;11.566;2023-12-28T04:37:09;8.00;;;4.50;;
22144;SDS011;11238;48.730;11.566;2023-12-28T04:39:36;8.23;;;4.88;;
22144;SDS011;11238;48.730;11.566;2023-12-28T04:42:02;6.80;;;4.55;;
22144;SDS011;11238;48.730;11.566;2023-12-28T04:44:28;7.85;;;5.10;;
22144;SDS011;11238;48.730;11.566;2023-12-28T04:46:54;7.90;;;4.85;;
22144;SDS011;11238;48.730;11.566;2023-12-28T04:49:20;7.15;;;5.20;;
22144;SDS011;11238;48.730;11.566;2023-12-28T04:51:46;8.98;;;5.25;;
22144;SDS011;11238;48.730;11.566;2023-12-28T04:54:12;8.25;;;5.10;;
22144;SDS011;11238;48.730;11.566;2023-12-28T04:56:38;8.57;;;4.85;;
22144;SDS011;11238;48.730;11.566;2023-12-28T04:59:04;9.18;;;5.60;;
22144;SDS011;11238;48.730;11.566;2023-12-28T05:01:31;7.38;;;5.70;;
22144;SDS011;11238;48.730;11.566;2023-12-28T05:03:57;9.23;;;6.07;;
22144;SDS011;11238;48.730;11.566;2023-12-28T05:06:23;8.38;;;6.07;;
22144;SDS011;11238;48.730;11.566;2023-12-28T05:08:49;8.45;;;5.70;;
22144;SDS011;11238;48.730;11.566;2023-12-28T05:11:14;9.43;;;5.25;;
22144;SDS011;11238;48.730;11.566;2023-12-28T05:13:40;10.60;;;6.40;;
22144;SDS011;11238;48.730;11.566;2023-12-28T05:16:06;8.95;;;5.88;;
22144;SDS011;11238;48.730;11.566;2023-12-28T05:18:33;6.72;;;4.72;;
22144;SDS011;11238;48.730;11.566;2023-12-28T05:20:59;7.63;;;4.88;;
22144;SDS011;11238;48.730;11.566;2023-12-28T05:23:24;8.38;;;4.88;;
22144;SDS011;11238;48.730;11.566;2023-12-28T05:25:50;8.40;;;5.13;;
22144;SDS011;11238;48.730;11.566;2023-12-28T05:28:16;9.82;;;5.68;;
22144;SDS011;11238;48.730;11.566;2023-12-28T05:30:42;9.65;;;5.72;;
22144;SDS011;11238;48.730;11.566;2023-12-28T05:33:07;11.27;;;6.45;;
22144;SDS011;11238;48.730;11.566;2023-12-28T05:35:33;11.30;;;6.85;;
22144;SDS011;11238;48.730;11.566;2023-12-28T05:37:59;8.85;;;6.30;;
22144;SDS011;11238;48.730;11.566;2023-12-28T05:40:25;9.00;;;5.53;;
22144;SDS011;11238;48.730;11.566;2023-12-28T05:42:51;8.35;;;4.80;;
22144;SDS011;11238;48.730;11.566;2023-12-28T05:45:17;7.20;;;4.53;;
22144;SDS011;11238;48.730;11.566;2023-12-28T05:47:43;12.13;;;4.88;;
22144;SDS011;11238;48.730;11.566;2023-12-28T05:50:09;7.00;;;4.75;;
22144;SDS011;11238;48.730;11.566;2023-12-28T05:52:35;8.40;;;5.22;;
22144;SDS011;11238;48.730;11.566;2023-12-28T05:55:00;8.82;;;4.57;;
22144;SDS011;11238;48.730;11.566;2023-12-28T05:57:26;7.35;;;4.53;;
22144;SDS011;11238;48.730;11.566;2023-12-28T05:59:56;8.07;;;5.05;;
22144;SDS011;11238;48.730;11.566;2023-12-28T06:02:22;8.43;;;5.22;;
22144;SDS011;11238;48.730;11.566;2023-12-28T06:04:48;8.13;;;4.93;;
22144;SDS011;11238;48.730;11.566;2023-12-28T06:07:14;6.25;;;4.95;;
22144;SDS011;11238;48.730;11.566;2023-12-28T06:09:40;8.35;;;5.40;;
22144;SDS011;11238;48.730;11.566;2023-12-28T06:12:07;9.30;;;5.35;;
22144;SDS011;11238;48.730;11.566;2023-12-28T06:14:32;13.75;;;5.88;;
22144;SDS011;11238;48.730;11.566;2023-12-28T06:17:02;10.50;;;5.70;;
22144;SDS011;11238;48.730;11.566;2023-12-28T06:19:28;8.45;;;5.22;;
22144;SDS011;11238;48.730;11.566;2023-12-28T06:21:53;8.10;;;5.07;;
22144;SDS011;11238;48.730;11.566;2023-12-28T06:24:19;9.63;;;5.68;;
22144;SDS011;11238;48.730;11.566;2023-12-28T06:26:45;9.90;;;5.82;;
22144;SDS011;11238;48.730;11.566;2023-12-28T06:29:11;9.88;;;5.75;;
22144;SDS011;11238;48.730;11.566;2023-12-28T06:31:38;7.85;;;4.97;;
22144;SDS011;11238;48.730;11.566;2023-12-28T06:34:04;9.38;;;5.03;;
22144;SDS011;11238;48.730;11.566;2023-12-28T06:36:31;10.45;;;5.75;;
22144;SDS011;11238;48.730;11.566;2023-12-28T06:38:58;10.00;;;6.43;;
22144;SDS011;11238;48.730;11.566;2023-12-28T06:41:24;9.75;;;5.68;;
22144;SDS011;11238;48.730;11.566;2023-12-28T06:43:50;12.57;;;6.13;;
22144;SDS011;11238;48.730;11.566;2023-12-28T06:46:17;13.23;;;6.63;;
22144;SDS011;11238;48.730;11.566;2023-12-28T06:48:44;16.77;;;8.05;;
22144;SDS011;11238;48.730;11.566;2023-12-28T06:51:15;14.80;;;7.50;;
22144;SDS011;11238;48.730;11.566;2023-12-28T06:53:43;13.40;;;7.57;;
22144;SDS011;11238;48.730;11.566;2023-12-28T06:56:09;12.63;;;6.95;;
22144;SDS011;11238;48.730;11.566;2023-12-28T06:58:35;13.75;;;6.57;;
22144;SDS011;11238;48.730;11.566;2023-12-28T07:01:02;12.48;;;6.53;;
22144;SDS011;11238;48.730;11.566;2023-12-28T07:03:29;11.95;;;6.07;;
22144;SDS011;11238;48.730;11.566;2023-12-28T07:05:58;12.60;;;6.90;;
22144;SDS011;11238;48.730;11.566;2023-12-28T07:08:24;15.10;;;7.40;;
22144;SDS011;11238;48.730;11.566;2023-12-28T07:10:50;12.57;;;6.97;;
22144;SDS011;11238;48.730;11.566;2023-12-28T07:13:16;12.18;;;6.65;;
22144;SDS011;11238;48.730;11.566;2023-12-28T07:15:42;9.38;;;5.88;;
22144;SDS011;11238;48.730;11.566;2023-12-28T07:18:08;8.30;;;5.53;;
22144;SDS011;11238;48.730;11.566;2023-12-28T07:20:34;9.15;;;5.50;;
22144;SDS011;11238;48.730;11.566;2023-12-28T07:22:59;9.95;;;5.20;;
22144;SDS011;11238;48.730;11.566;2023-12-28T07:25:25;9.60;;;5.07;;
22144;SDS011;11238;48.730;11.566;2023-12-28T07:27:51;9.73;;;4.85;;
22144;SDS011;11238;48.730;11.566;2023-12-28T07:30:17;6.93;;;4.93;;
22144;SDS011;11238;48.730;11.566;2023-12-28T07:32:43;9.15;;;5.28;;
22144;SDS011;11238;48.730;11.566;2023-12-28T07:35:10;10.68;;;6.97;;
22144;SDS011;11238;48.730;11.566;2023-12-28T07:37:36;10.70;;;6.82;;
22144;SDS011;11238;48.730;11.566;2023-12-28T07:40:05;10.90;;;6.75;;
22144;SDS011;11238;48.730;11.566;2023-12-28T07:42:32;13.68;;;7.13;;
22144;SDS011;11238;48.730;11.566;2023-12-28T07:44:58;24.83;;;13.50;;
22144;SDS011;11238;48.730;11.566;2023-12-28T07:47:24;24.80;;;14.25;;
22144;SDS011;11238;48.730;11.566;2023-12-28T07:49:50;15.48;;;9.13;;
22144;SDS011;11238;48.730;11.566;2023-12-28T07:52:16;14.75;;;8.35;;
22144;SDS011;11238;48.730;11.566;2023-12-28T07:54:43;16.55;;;8.40;;
22144;SDS011;11238;48.730;11.566;2023-12-28T07:57:09;13.57;;;7.10;;
22144;SDS011;11238;48.730;11.566;2023-12-28T07:59:35;12.25;;;5.93;;
22144;SDS011;11238;48.730;11.566;2023-12-28T08:02:04;10.05;;;6.55;;
22144;SDS011;11238;48.730;11.566;2023-12-28T08:04:31;9.52;;;6.25;;
22144;SDS011;11238;48.730;11.566;2023-12-28T08:06:57;17.80;;;6.90;;
22144;SDS011;11238;48.730;11.566;2023-12-28T08:09:23;11.48;;;7.38;;
22144;SDS011;11238;48.730;11.566;2023-12-28T08:11:49;9.90;;;6.88;;
22144;SDS011;11238;48.730;11.566;2023-12-28T08:14:15;9.07;;;5.57;;
22144;SDS011;11238;48.730;11.566;2023-12-28T08:16:40;21.23;;;9.93;;
22144;SDS011;11238;48.730;11.566;2023-12-28T08:19:09;19.00;;;9.70;;
22144;SDS011;11238;48.730;11.566;2023-12-28T08:21:35;16.85;;;9.40;;
22144;SDS011;11238;48.730;11.566;2023-12-28T08:24:01;17.50;;;9.25;;
22144;SDS011;11238;48.730;11.566;2023-12-28T08:26:27;13.07;;;7.55;;
22144;SDS011;11238;48.730;11.566;2023-12-28T08:28:53;13.90;;;7.93;;
22144;SDS011;11238;48.730;11.566;2023-12-28T08:31:19;14.48;;;8.52;;
22144;SDS011;11238;48.730;11.566;2023-12-28T08:33:44;15.45;;;8.80;;
22144;SDS011;11238;48.730;11.566;2023-12-28T08:36:11;14.68;;;8.38;;
22144;SDS011;11238;48.730;11.566;2023-12-28T08:38:37;11.98;;;7.68;;
22144;SDS011;11238;48.730;11.566;2023-12-28T08:41:03;12.38;;;7.60;;
22144;SDS011;11238;48.730;11.566;2023-12-28T08:43:34;12.13;;;7.43;;
22144;SDS011;11238;48.730;11.566;2023-12-28T08:46:23;12.38;;;8.23;;
22144;SDS011;11238;48.730;11.566;2023-12-28T08:48:51;20.75;;;8.32;;
22144;SDS011;11238;48.730;11.566;2023-12-28T08:51:18;10.93;;;6.53;;
22144;SDS011;11238;48.730;11.566;2023-12-28T08:53:43;7.78;;;5.28;;
22144;SDS011;11238;48.730;11.566;2023-12-28T08:56:16;8.98;;;5.85;;
22144;SDS011;11238;48.730;11.566;2023-12-28T08:58:48;9.55;;;5.70;;
22144;SDS011;11238;48.730;11.566;2023-12-28T09:01:19;8.10;;;5.20;;
22144;SDS011;11238;48.730;11.566;2023-12-28T09:03:49;7.07;;;5.55;;
22144;SDS011;11238;48.730;11.566;2023-12-28T09:06:16;10.40;;;5.95;;
22144;SDS011;11238;48.730;11.566;2023-12-28T09:08:42;9.07;;;5.68;;
22144;SDS011;11238;48.730;11.566;2023-12-28T09:11:11;9.13;;;5.85;;
22144;SDS011;11238;48.730;11.566;2023-12-28T09:13:40;10.40;;;6.15;;
22144;SDS011;11238;48.730;11.566;2023-12-28T09:16:16;8.60;;;5.85;;
22144;SDS011;11238;48.730;11.566;2023-12-28T09:18:43;7.00;;;5.03;;
22144;SDS011;11238;48.730;11.566;2023-12-28T09:21:15;8.98;;;5.55;;
22144;SDS011;11238;48.730;11.566;2023-12-28T09:32:18;8.45;;;5.38;;
22144;SDS011;11238;48.730;11.566;2023-12-28T09:34:54;8.48;;;5.70;;
22144;SDS011;11238;48.730;11.566;2023-12-28T09:37:22;10.10;;;6.03;;
22144;SDS011;11238;48.730;11.566;2023-12-28T09:49:53;17.23;;;8.85;;
22144;SDS011;11238;48.730;11.566;2023-12-28T09:52:20;11.35;;;6.85;;
22144;SDS011;11238;48.730;11.566;2023-12-28T09:58:35;10.35;;;6.47;;
22144;SDS011;11238;48.730;11.566;2023-12-28T10:01:01;10.45;;;6.32;;
22144;SDS011;11238;48.730;11.566;2023-12-28T10:03:28;10.32;;;6.57;;
22144;SDS011;11238;48.730;11.566;2023-12-28T10:05:54;12.20;;;7.00;;
22144;SDS011;11238;48.730;11.566;2023-12-28T10:08:19;10.60;;;6.25;;
22144;SDS011;11238;48.730;11.566;2023-12-28T10:11:03;9.95;;;6.38;;
22144;SDS011;11238;48.730;11.566;2023-12-28T10:13:32;10.40;;;6.47;;
22144;SDS011;11238;48.730;11.566;2023-12-28T10:16:01;11.18;;;6.68;;
22144;SDS011;11238;48.730;11.566;2023-12-28T10:18:31;10.32;;;6.38;;
22144;SDS011;11238;48.730;11.566;2023-12-28T10:24:22;9.50;;;5.97;;
22144;SDS011;11238;48.730;11.566;2023-12-28T10:26:48;10.15;;;5.88;;
22144;SDS011;11238;48.730;11.566;2023-12-28T10:29:15;10.63;;;6.57;;
22144;SDS011;11238;48.730;11.566;2023-12-28T10:31:44;9.80;;;5.80;;
22144;SDS011;11238;48.730;11.566;2023-12-28T10:34:14;8.35;;;5.47;;
22144;SDS011;11238;48.730;11.566;2023-12-28T10:36:41;7.80;;;5.03;;
22144;SDS011;11238;48.730;11.566;2023-12-28T10:39:09;9.23;;;4.63;;
22144;SDS011;11238;48.730;11.566;2023-12-28T10:41:37;6.68;;;4.57;;
22144;SDS011;11238;48.730;11.566;2023-12-28T10:44:05;7.75;;;4.18;;
22144;SDS011;11238;48.730;11.566;2023-12-28T10:46:32;7.82;;;4.28;;
22144;SDS011;11238;48.730;11.566;2023-12-28T10:49:11;9.05;;;4.97;;
22144;SDS011;11238;48.730;11.566;2023-12-28T10:51:40;8.80;;;5.70;;
22144;SDS011;11238;48.730;11.566;2023-12-28T10:56:46;7.63;;;5.13;;
22144;SDS011;11238;48.730;11.566;2023-12-28T10:59:52;11.15;;;5.07;;
22144;SDS011;11238;48.730;11.566;2023-12-28T11:02:47;9.98;;;5.50;;
22144;SDS011;11238;48.730;11.566;2023-12-28T11:05:19;8.63;;;5.45;;
22144;SDS011;11238;48.730;11.566;2023-12-28T11:07:47;7.65;;;4.70;;
22144;SDS011;11238;48.730;11.566;2023-12-28T11:10:14;8.50;;;4.60;;
22144;SDS011;11238;48.730;11.566;2023-12-28T11:12:42;7.82;;;5.28;;
22144;SDS011;11238;48.730;11.566;2023-12-28T11:15:09;7.20;;;4.80;;
22144;SDS011;11238;48.730;11.566;2023-12-28T11:17:37;12.18;;;6.20;;
22144;SDS011;11238;48.730;11.566;2023-12-28T11:20:03;10.40;;;6.30;;
22144;SDS011;11238;48.730;11.566;2023-12-28T11:22:30;12.30;;;6.38;;
22144;SDS011;11238;48.730;11.566;2023-12-28T11:24:57;10.65;;;6.68;;
22144;SDS011;11238;48.730;11.566;2023-12-28T11:27:23;10.77;;;6.55;;
22144;SDS011;11238;48.730;11.566;2023-12-28T11:29:51;9.40;;;6.20;;
22144;SDS011;11238;48.730;11.566;2023-12-28T11:32:17;11.32;;;6.38;;
22144;SDS011;11238;48.730;11.566;2023-12-28T11:34:45;9.52;;;6.00;;
22144;SDS011;11238;48.730;11.566;2023-12-28T11:37:23;9.20;;;6.07;;
22144;SDS011;11238;48.730;11.566;2023-12-28T11:39:51;9.63;;;6.07;;
22144;SDS011;11238;48.730;11.566;2023-12-28T11:42:20;11.52;;;6.80;;
22144;SDS011;11238;48.730;11.566;2023-12-28T11:44:52;10.50;;;6.57;;
22144;SDS011;11238;48.730;11.566;2023-12-28T11:47:23;9.30;;;6.30;;
22144;SDS011;11238;48.730;11.566;2023-12-28T11:49:50;8.75;;;5.72;;
22144;SDS011;11238;48.730;11.566;2023-12-28T11:52:25;7.53;;;5.60;;
22144;SDS011;11238;48.730;11.566;2023-12-28T11:54:55;8.63;;;5.50;;
22144;SDS011;11238;48.730;11.566;2023-12-28T11:57:22;10.10;;;5.80;;
22144;SDS011;11238;48.730;11.566;2023-12-28T11:59:52;9.88;;;5.63;;
22144;SDS011;11238;48.730;11.566;2023-12-28T12:02:20;17.65;;;9.95;;
22144;SDS011;11238;48.730;11.566;2023-12-28T12:04:46;17.48;;;10.50;;
22144;SDS011;11238;48.730;11.566;2023-12-28T12:07:13;15.90;;;8.50;;
22144;SDS011;11238;48.730;11.566;2023-12-28T12:09:39;12.75;;;8.25;;
22144;SDS011;11238;48.730;11.566;2023-12-28T12:12:06;15.88;;;9.52;;
22144;SDS011;11238;48.730;11.566;2023-12-28T12:14:32;15.82;;;9.25;;
22144;SDS011;11238;48.730;11.566;2023-12-28T12:16:59;13.63;;;8.30;;
22144;SDS011;11238;48.730;11.566;2023-12-28T12:19:26;14.43;;;8.52;;
22144;SDS011;11238;48.730;11.566;2023-12-28T12:21:52;17.23;;;10.23;;
22144;SDS011;11238;48.730;11.566;2023-12-28T12:24:19;47.92;;;22.75;;
22144;SDS011;11238;48.730;11.566;2023-12-28T12:26:46;54.25;;;24.85;;
22144;SDS011;11238;48.730;11.566;2023-12-28T12:29:12;23.85;;;13.35;;
22144;SDS011;11238;48.730;11.566;2023-12-28T12:31:39;18.55;;;10.95;;
22144;SDS011;11238;48.730;11.566;2023-12-28T12:34:08;17.20;;;9.65;;
22144;SDS011;11238;48.730;11.566;2023-12-28T12:36:43;37.03;;;18.63;;
22144;SDS011;11238;48.730;11.566;2023-12-28T12:39:10;37.42;;;18.05;;
22144;SDS011;11238;48.730;11.566;2023-12-28T12:41:36;29.95;;;14.57;;
22144;SDS011;11238;48.730;11.566;2023-12-28T12:44:05;26.83;;;13.82;;
22144;SDS011;11238;48.730;11.566;2023-12-28T12:46:35;22.42;;;11.75;;
22144;SDS011;11238;48.730;11.566;2023-12-28T12:49:02;22.55;;;11.57;;
22144;SDS011;11238;48.730;11.566;2023-12-28T12:51:28;23.88;;;12.55;;
22144;SDS011;11238;48.730;11.566;2023-12-28T12:53:57;25.30;;;13.38;;
22144;SDS011;11238;48.730;11.566;2023-12-28T12:56:28;19.65;;;11.63;;
22144;SDS011;11238;48.730;11.566;2023-12-28T12:58:54;14.38;;;8.25;;
22144;SDS011;11238;48.730;11.566;2023-12-28T13:01:22;13.52;;;8.25;;
22144;SDS011;11238;48.730;11.566;2023-12-28T13:03:49;13.88;;;7.72;;
22144;SDS011;11238;48.730;11.566;2023-12-28T13:06:15;10.85;;;7.15;;
22144;SDS011;11238;48.730;11.566;2023-12-28T13:08:41;11.43;;;6.72;;
22144;SDS011;11238;48.730;11.566;2023-12-28T13:11:07;11.05;;;6.50;;
22144;SDS011;11238;48.730;11.566;2023-12-28T13:13:34;9.82;;;5.57;;
22144;SDS011;11238;48.730;11.566;2023-12-28T13:16:03;8.23;;;5.75;;
22144;SDS011;11238;48.730;11.566;2023-12-28T13:18:29;9.10;;;5.60;;
22144;SDS011;11238;48.730;11.566;2023-12-28T13:20:55;6.70;;;4.50;;
22144;SDS011;11238;48.730;11.566;2023-12-28T13:23:21;8.63;;;4.18;;
22144;SDS011;11238;48.730;11.566;2023-12-28T13:25:47;5.28;;;3.63;;
22144;SDS011;11238;48.730;11.566;2023-12-28T13:28:13;6.50;;;4.47;;
22144;SDS011;11238;48.730;11.566;2023-12-28T13:30:39;7.15;;;4.38;;
22144;SDS011;11238;48.730;11.566;2023-12-28T13:33:05;6.35;;;3.65;;
22144;SDS011;11238;48.730;11.566;2023-12-28T13:35:31;5.82;;;3.72;;
22144;SDS011;11238;48.730;11.566;2023-12-28T13:37:58;6.55;;;3.95;;
22144;SDS011;11238;48.730;11.566;2023-12-28T13:40:27;7.63;;;4.50;;
22144;SDS011;11238;48.730;11.566;2023-12-28T13:42:53;10.50;;;5.15;;
22144;SDS011;11238;48.730;11.566;2023-12-28T13:45:19;6.72;;;4.70;;
22144;SDS011;11238;48.730;11.566;2023-12-28T13:47:45;6.30;;;4.20;;
22144;SDS011;11238;48.730;11.566;2023-12-28T13:50:11;6.13;;;3.97;;
22144;SDS011;11238;48.730;11.566;2023-12-28T13:52:37;5.00;;;3.53;;
22144;SDS011;11238;48.730;11.566;2023-12-28T13:55:03;4.82;;;3.45;;
22144;SDS011;11238;48.730;11.566;2023-12-28T13:57:31;5.97;;;3.92;;
22144;SDS011;11238;48.730;11.566;2023-12-28T13:59:57;4.97;;;3.50;;
22144;SDS011;11238;48.730;11.566;2023-12-28T14:02:37;8.30;;;4.07;;
22144;SDS011;11238;48.730;11.566;2023-12-28T14:05:03;5.65;;;3.80;;
22144;SDS011;11238;48.730;11.566;2023-12-28T14:07:29;6.97;;;3.90;;
22144;SDS011;11238;48.730;11.566;2023-12-28T14:09:56;10.73;;;4.80;;
22144;SDS011;11238;48.730;11.566;2023-12-28T14:12:21;6.18;;;3.75;;
22144;SDS011;11238;48.730;11.566;2023-12-28T14:14:48;8.35;;;4.10;;
22144;SDS011;11238;48.730;11.566;2023-12-28T14:17:14;7.07;;;4.10;;
22144;SDS011;11238;48.730;11.566;2023-12-28T14:19:41;7.22;;;4.05;;
22144;SDS011;11238;48.730;11.566;2023-12-28T14:22:07;7.38;;;3.90;;
22144;SDS011;11238;48.730;11.566;2023-12-28T14:24:34;6.03;;;3.70;;
22144;SDS011;11238;48.730;11.566;2023-12-28T14:26:59;5.60;;;3.53;;
22144;SDS011;11238;48.730;11.566;2023-12-28T14:29:26;5.03;;;3.45;;
22144;SDS011;11238;48.730;11.566;2023-12-28T14:31:52;5.78;;;3.22;;
22144;SDS011;11238;48.730;11.566;2023-12-28T14:34:18;4.88;;;3.40;;
22144;SDS011;11238;48.730;11.566;2023-12-28T14:36:44;7.28;;;3.45;;
22144;SDS011;11238;48.730;11.566;2023-12-28T14:39:15;4.43;;;3.40;;
22144;SDS011;11238;48.730;11.566;2023-12-28T14:41:44;7.15;;;4.07;;
22144;SDS011;11238;48.730;11.566;2023-12-28T14:44:10;6.18;;;4.00;;
22144;SDS011;11238;48.730;11.566;2023-12-28T14:46:36;5.40;;;3.65;;
22144;SDS011;11238;48.730;11.566;2023-12-28T14:49:02;4.95;;;3.58;;
22144;SDS011;11238;48.730;11.566;2023-12-28T14:51:28;4.15;;;3.15;;
22144;SDS011;11238;48.730;11.566;2023-12-28T14:53:54;11.48;;;3.70;;
22144;SDS011;11238;48.730;11.566;2023-12-28T14:56:21;8.57;;;4.10;;
22144;SDS011;11238;48.730;11.566;2023-12-28T14:58:47;6.57;;;4.47;;